Bells, Tennessee
Current Conditions -  °F | °C
As of 2:53 PM on Tuesday 25 Nov 2014 (Local Time) from KMKL Reporting Station
Clear Clear  
Wind Chill: 43°   Ceiling: Unl
Heat Index: 46°   Visibility: 10mi
Dew Point: 24°   Wind: 6mph
Humidity: 42%   Direction: 290°WNW
Pressure: 30.15"   Gusts: NA
Location:  35.71°N, 89.09°W
Report Text: KMKL 252053Z 29005KT 10SM CLR 08/M04 A3015 RMK AO2 SLP211 T00781044 56013
Loading
Personal Weather Stations






























Interactive Weather Map New forecast layout! Learn more

10-Day Weather Forecast

Advertisements
Track Severe Weather on mobile